sensor_id;sensor_type;location;lat;lon;timestamp;temperature;humidity
68912;SHT31;55953;51.650;-0.522;2022-07-29T00:01:18;17.06;62.02
68912;SHT31;55953;51.650;-0.522;2022-07-29T00:03:46;17.02;62.12
68912;SHT31;55953;51.650;-0.522;2022-07-29T00:06:15;17.02;62.18
68912;SHT31;55953;51.650;-0.522;2022-07-29T00:08:43;17.04;62.29
68912;SHT31;55953;51.650;-0.522;2022-07-29T00:11:11;16.96;62.42
68912;SHT31;55953;51.650;-0.522;2022-07-29T00:13:39;16.93;62.55
68912;SHT31;55953;51.650;-0.522;2022-07-29T00:16:07;16.91;62.80
68912;SHT31;55953;51.650;-0.522;2022-07-29T00:18:34;16.92;62.65
68912;SHT31;55953;51.650;-0.522;2022-07-29T00:21:02;16.90;62.92
68912;SHT31;55953;51.650;-0.522;2022-07-29T00:23:30;16.88;63.19
68912;SHT31;55953;51.650;-0.522;2022-07-29T00:26:03;16.85;63.29
68912;SHT31;55953;51.650;-0.522;2022-07-29T00:28:30;16.84;63.44
68912;SHT31;55953;51.650;-0.522;2022-07-29T00:30:58;16.83;63.54
68912;SHT31;55953;51.650;-0.522;2022-07-29T00:33:26;16.80;63.74
68912;SHT31;55953;51.650;-0.522;2022-07-29T00:35:55;16.78;63.94
68912;SHT31;55953;51.650;-0.522;2022-07-29T00:38:23;16.78;63.89
68912;SHT31;55953;51.650;-0.522;2022-07-29T00:40:51;16.80;64.06
68912;SHT31;55953;51.650;-0.522;2022-07-29T00:43:19;16.77;64.26
68912;SHT31;55953;51.650;-0.522;2022-07-29T00:45:47;16.76;64.43
68912;SHT31;55953;51.650;-0.522;2022-07-29T00:48:15;16.76;64.39
68912;SHT31;55953;51.650;-0.522;2022-07-29T00:50:42;16.76;64.63
68912;SHT31;55953;51.650;-0.522;2022-07-29T00:53:10;16.79;64.53
68912;SHT31;55953;51.650;-0.522;2022-07-29T00:55:39;16.79;64.73
68912;SHT31;55953;51.650;-0.522;2022-07-29T00:58:07;16.75;64.99
68912;SHT31;55953;51.650;-0.522;2022-07-29T01:00:35;16.77;64.83
68912;SHT31;55953;51.650;-0.522;2022-07-29T01:03:04;16.80;64.85
68912;SHT31;55953;51.650;-0.522;2022-07-29T01:05:32;16.81;64.88
68912;SHT31;55953;51.650;-0.522;2022-07-29T01:08:17;16.82;64.84
68912;SHT31;55953;51.650;-0.522;2022-07-29T01:10:47;16.83;65.00
68912;SHT31;55953;51.650;-0.522;2022-07-29T01:13:16;16.80;65.10
68912;SHT31;55953;51.650;-0.522;2022-07-29T01:15:49;16.75;65.34
68912;SHT31;55953;51.650;-0.522;2022-07-29T01:18:42;16.65;65.54
68912;SHT31;55953;51.650;-0.522;2022-07-29T01:30:50;16.42;66.40
68912;SHT31;55953;51.650;-0.522;2022-07-29T01:33:21;16.35;66.55
68912;SHT31;55953;51.650;-0.522;2022-07-29T01:36:13;16.25;66.77
68912;SHT31;55953;51.650;-0.522;2022-07-29T01:38:51;16.17;66.97
68912;SHT31;55953;51.650;-0.522;2022-07-29T01:41:53;16.13;67.10
68912;SHT31;55953;51.650;-0.522;2022-07-29T01:44:33;16.14;67.02
68912;SHT31;55953;51.650;-0.522;2022-07-29T01:47:10;16.13;67.05
68912;SHT31;55953;51.650;-0.522;2022-07-29T01:49:46;16.09;67.28
68912;SHT31;55953;51.650;-0.522;2022-07-29T01:52:19;16.07;67.33
68912;SHT31;55953;51.650;-0.522;2022-07-29T01:54:55;16.01;67.61
68912;SHT31;55953;51.650;-0.522;2022-07-29T01:57:29;15.99;67.71
68912;SHT31;55953;51.650;-0.522;2022-07-29T02:00:00;16.02;67.63
68912;SHT31;55953;51.650;-0.522;2022-07-29T02:02:39;15.99;67.86
68912;SHT31;55953;51.650;-0.522;2022-07-29T02:05:12;15.90;68.14
68912;SHT31;55953;51.650;-0.522;2022-07-29T02:07:43;15.86;68.28
68912;SHT31;55953;51.650;-0.522;2022-07-29T02:10:14;15.89;68.22
68912;SHT31;55953;51.650;-0.522;2022-07-29T02:12:52;15.92;68.19
68912;SHT31;55953;51.650;-0.522;2022-07-29T02:15:24;15.92;68.26
68912;SHT31;55953;51.650;-0.522;2022-07-29T02:18:00;15.87;68.28
68912;SHT31;55953;51.650;-0.522;2022-07-29T02:20:47;15.82;68.42
68912;SHT31;55953;51.650;-0.522;2022-07-29T02:23:19;15.78;68.61
68912;SHT31;55953;51.650;-0.522;2022-07-29T02:25:53;15.75;68.66
68912;SHT31;55953;51.650;-0.522;2022-07-29T02:28:24;15.65;68.97
68912;SHT31;55953;51.650;-0.522;2022-07-29T02:30:56;15.65;69.11
68912;SHT31;55953;51.650;-0.522;2022-07-29T02:33:28;15.62;69.19
68912;SHT31;55953;51.650;-0.522;2022-07-29T02:35:59;15.59;69.33
68912;SHT31;55953;51.650;-0.522;2022-07-29T02:38:28;15.61;69.31
68912;SHT31;55953;51.650;-0.522;2022-07-29T02:41:40;15.59;69.46
68912;SHT31;55953;51.650;-0.522;2022-07-29T02:44:24;15.53;69.42
68912;SHT31;55953;51.650;-0.522;2022-07-29T02:49:53;15.37;70.09
68912;SHT31;55953;51.650;-0.522;2022-07-29T02:58:18;15.29;70.47
68912;SHT31;55953;51.650;-0.522;2022-07-29T03:00:59;15.29;70.41
68912;SHT31;55953;51.650;-0.522;2022-07-29T03:03:34;15.29;70.57
68912;SHT31;55953;51.650;-0.522;2022-07-29T03:06:05;15.28;70.65
68912;SHT31;55953;51.650;-0.522;2022-07-29T03:08:35;15.25;70.61
68912;SHT31;55953;51.650;-0.522;2022-07-29T03:11:04;15.16;70.87
68912;SHT31;55953;51.650;-0.522;2022-07-29T03:13:32;15.16;71.01
68912;SHT31;55953;51.650;-0.522;2022-07-29T03:16:02;15.18;71.04
68912;SHT31;55953;51.650;-0.522;2022-07-29T03:18:30;15.19;71.02
68912;SHT31;55953;51.650;-0.522;2022-07-29T03:20:59;15.12;71.05
68912;SHT31;55953;51.650;-0.522;2022-07-29T03:23:27;15.01;71.35
68912;SHT31;55953;51.650;-0.522;2022-07-29T03:26:03;14.88;71.72
68912;SHT31;55953;51.650;-0.522;2022-07-29T03:28:31;14.88;71.83
68912;SHT31;55953;51.650;-0.522;2022-07-29T03:31:00;14.84;71.91
68912;SHT31;55953;51.650;-0.522;2022-07-29T03:33:28;14.78;72.03
68912;SHT31;55953;51.650;-0.522;2022-07-29T03:35:57;14.79;72.03
68912;SHT31;55953;51.650;-0.522;2022-07-29T03:38:26;14.77;72.01
68912;SHT31;55953;51.650;-0.522;2022-07-29T03:40:59;14.68;72.19
68912;SHT31;55953;51.650;-0.522;2022-07-29T03:43:38;14.61;72.59
68912;SHT31;55953;51.650;-0.522;2022-07-29T03:46:16;14.60;72.88
68912;SHT31;55953;51.650;-0.522;2022-07-29T03:48:46;14.59;72.99
68912;SHT31;55953;51.650;-0.522;2022-07-29T03:51:20;14.55;73.11
68912;SHT31;55953;51.650;-0.522;2022-07-29T03:54:01;14.46;73.32
68912;SHT31;55953;51.650;-0.522;2022-07-29T03:56:40;14.44;73.46
68912;SHT31;55953;51.650;-0.522;2022-07-29T03:59:15;14.44;73.40
68912;SHT31;55953;51.650;-0.522;2022-07-29T04:01:46;14.42;73.47
68912;SHT31;55953;51.650;-0.522;2022-07-29T04:04:16;14.40;73.67
68912;SHT31;55953;51.650;-0.522;2022-07-29T04:06:45;14.39;73.77
68912;SHT31;55953;51.650;-0.522;2022-07-29T04:09:14;14.41;73.72
68912;SHT31;55953;51.650;-0.522;2022-07-29T04:11:42;14.38;74.04
68912;SHT31;55953;51.650;-0.522;2022-07-29T04:14:30;14.36;74.16
68912;SHT31;55953;51.650;-0.522;2022-07-29T04:17:00;14.40;74.21
68912;SHT31;55953;51.650;-0.522;2022-07-29T04:19:30;14.47;74.07
68912;SHT31;55953;51.650;-0.522;2022-07-29T04:21:59;14.54;73.97
68912;SHT31;55953;51.650;-0.522;2022-07-29T04:24:28;14.60;73.79
68912;SHT31;55953;51.650;-0.522;2022-07-29T04:26:56;14.60;74.06
68912;SHT31;55953;51.650;-0.522;2022-07-29T04:29:23;14.66;73.96
68912;SHT31;55953;51.650;-0.522;2022-07-29T04:31:51;14.75;73.77
68912;SHT31;55953;51.650;-0.522;2022-07-29T04:34:19;14.84;73.52
68912;SHT31;55953;51.650;-0.522;2022-07-29T04:36:47;14.85;73.54
68912;SHT31;55953;51.650;-0.522;2022-07-29T04:39:15;14.74;73.69
68912;SHT31;55953;51.650;-0.522;2022-07-29T04:41:49;14.64;73.94
68912;SHT31;55953;51.650;-0.522;2022-07-29T04:44:21;14.66;73.91
68912;SHT31;55953;51.650;-0.522;2022-07-29T04:46:55;14.70;73.83
68912;SHT31;55953;51.650;-0.522;2022-07-29T04:49:24;14.67;73.85
68912;SHT31;55953;51.650;-0.522;2022-07-29T04:51:52;14.64;73.83
68912;SHT31;55953;51.650;-0.522;2022-07-29T04:54:20;14.68;73.86
68912;SHT31;55953;51.650;-0.522;2022-07-29T04:56:48;14.66;73.99
68912;SHT31;55953;51.650;-0.522;2022-07-29T04:59:16;14.77;73.81
68912;SHT31;55953;51.650;-0.522;2022-07-29T05:01:44;14.87;73.50
68912;SHT31;55953;51.650;-0.522;2022-07-29T05:04:12;14.97;73.34
68912;SHT31;55953;51.650;-0.522;2022-07-29T05:06:40;15.07;73.12
68912;SHT31;55953;51.650;-0.522;2022-07-29T05:09:08;15.14;72.85
68912;SHT31;55953;51.650;-0.522;2022-07-29T05:11:35;15.12;73.04
68912;SHT31;55953;51.650;-0.522;2022-07-29T05:14:03;15.18;73.23
68912;SHT31;55953;51.650;-0.522;2022-07-29T05:16:31;15.29;73.23
68912;SHT31;55953;51.650;-0.522;2022-07-29T05:18:59;15.43;72.74
68912;SHT31;55953;51.650;-0.522;2022-07-29T05:21:26;15.50;72.81
68912;SHT31;55953;51.650;-0.522;2022-07-29T05:23:54;15.50;72.73
68912;SHT31;55953;51.650;-0.522;2022-07-29T05:26:22;15.57;72.60
68912;SHT31;55953;51.650;-0.522;2022-07-29T05:28:50;15.66;72.54
68912;SHT31;55953;51.650;-0.522;2022-07-29T05:31:17;15.68;72.74
68912;SHT31;55953;51.650;-0.522;2022-07-29T05:33:45;15.73;72.85
68912;SHT31;55953;51.650;-0.522;2022-07-29T05:36:13;15.84;72.63
68912;SHT31;55953;51.650;-0.522;2022-07-29T05:38:41;15.94;72.45
68912;SHT31;55953;51.650;-0.522;2022-07-29T05:41:09;16.04;72.37
68912;SHT31;55953;51.650;-0.522;2022-07-29T05:43:36;16.12;72.34
68912;SHT31;55953;51.650;-0.522;2022-07-29T05:46:04;16.20;72.42
68912;SHT31;55953;51.650;-0.522;2022-07-29T05:48:32;16.23;72.43
68912;SHT31;55953;51.650;-0.522;2022-07-29T05:51:00;16.31;72.26
68912;SHT31;55953;51.650;-0.522;2022-07-29T05:53:28;16.38;72.21
68912;SHT31;55953;51.650;-0.522;2022-07-29T05:55:56;16.39;72.50
68912;SHT31;55953;51.650;-0.522;2022-07-29T05:58:24;16.41;72.51
68912;SHT31;55953;51.650;-0.522;2022-07-29T06:00:51;16.43;72.69
68912;SHT31;55953;51.650;-0.522;2022-07-29T06:03:20;16.53;72.70
68912;SHT31;55953;51.650;-0.522;2022-07-29T06:05:47;16.63;72.60
68912;SHT31;55953;51.650;-0.522;2022-07-29T06:08:15;16.81;72.45
68912;SHT31;55953;51.650;-0.522;2022-07-29T06:10:43;16.95;72.22
68912;SHT31;55953;51.650;-0.522;2022-07-29T06:13:11;17.08;71.99
68912;SHT31;55953;51.650;-0.522;2022-07-29T06:15:40;17.26;71.87
68912;SHT31;55953;51.650;-0.522;2022-07-29T06:18:08;17.48;71.51
68912;SHT31;55953;51.650;-0.522;2022-07-29T06:20:37;17.67;71.07
68912;SHT31;55953;51.650;-0.522;2022-07-29T06:23:05;17.85;70.71
68912;SHT31;55953;51.650;-0.522;2022-07-29T06:25:33;18.05;70.67
68912;SHT31;55953;51.650;-0.522;2022-07-29T06:28:03;18.24;70.23
68912;SHT31;55953;51.650;-0.522;2022-07-29T06:30:32;18.35;69.84
68912;SHT31;55953;51.650;-0.522;2022-07-29T06:33:00;18.45;69.58
68912;SHT31;55953;51.650;-0.522;2022-07-29T06:35:29;18.61;69.31
68912;SHT31;55953;51.650;-0.522;2022-07-29T06:38:08;18.78;69.16
68912;SHT31;55953;51.650;-0.522;2022-07-29T06:40:57;18.96;68.99
68912;SHT31;55953;51.650;-0.522;2022-07-29T06:43:37;19.13;68.46
68912;SHT31;55953;51.650;-0.522;2022-07-29T06:46:19;19.23;68.31
68912;SHT31;55953;51.650;-0.522;2022-07-29T06:48:48;19.30;67.80
68912;SHT31;55953;51.650;-0.522;2022-07-29T06:51:16;19.32;67.86
68912;SHT31;55953;51.650;-0.522;2022-07-29T06:53:51;19.35;67.66
68912;SHT31;55953;51.650;-0.522;2022-07-29T06:56:24;19.34;67.43
68912;SHT31;55953;51.650;-0.522;2022-07-29T06:58:52;19.42;67.62
68912;SHT31;55953;51.650;-0.522;2022-07-29T07:01:20;19.57;67.38
68912;SHT31;55953;51.650;-0.522;2022-07-29T07:03:49;19.70;67.20
68912;SHT31;55953;51.650;-0.522;2022-07-29T07:06:16;19.85;66.59
68912;SHT31;55953;51.650;-0.522;2022-07-29T07:08:44;19.84;66.29
68912;SHT31;55953;51.650;-0.522;2022-07-29T07:11:12;19.81;66.42
68912;SHT31;55953;51.650;-0.522;2022-07-29T07:13:40;19.84;66.32
68912;SHT31;55953;51.650;-0.522;2022-07-29T07:16:08;19.82;66.18
68912;SHT31;55953;51.650;-0.522;2022-07-29T07:18:36;19.74;66.37
68912;SHT31;55953;51.650;-0.522;2022-07-29T07:21:03;19.75;66.52
68912;SHT31;55953;51.650;-0.522;2022-07-29T07:23:32;19.89;66.48
68912;SHT31;55953;51.650;-0.522;2022-07-29T07:26:00;20.03;66.01
68912;SHT31;55953;51.650;-0.522;2022-07-29T07:28:28;20.17;65.63
68912;SHT31;55953;51.650;-0.522;2022-07-29T07:30:56;20.27;65.36
68912;SHT31;55953;51.650;-0.522;2022-07-29T07:33:24;20.25;64.96
68912;SHT31;55953;51.650;-0.522;2022-07-29T07:35:51;20.24;64.53
68912;SHT31;55953;51.650;-0.522;2022-07-29T07:38:19;20.24;64.81
68912;SHT31;55953;51.650;-0.522;2022-07-29T07:40:47;20.22;64.32
68912;SHT31;55953;51.650;-0.522;2022-07-29T07:43:15;20.14;64.29
68912;SHT31;55953;51.650;-0.522;2022-07-29T07:45:43;20.13;64.49
68912;SHT31;55953;51.650;-0.522;2022-07-29T07:48:10;20.06;64.11
68912;SHT31;55953;51.650;-0.522;2022-07-29T07:50:38;19.99;64.10
68912;SHT31;55953;51.650;-0.522;2022-07-29T07:53:06;19.90;64.20
68912;SHT31;55953;51.650;-0.522;2022-07-29T07:55:38;19.82;64.59
68912;SHT31;55953;51.650;-0.522;2022-07-29T07:58:28;19.83;63.67
68912;SHT31;55953;51.650;-0.522;2022-07-29T08:00:56;19.79;62.75
68912;SHT31;55953;51.650;-0.522;2022-07-29T08:03:24;19.76;62.74
68912;SHT31;55953;51.650;-0.522;2022-07-29T08:05:51;19.76;62.82
68912;SHT31;55953;51.650;-0.522;2022-07-29T08:08:21;19.79;62.57
68912;SHT31;55953;51.650;-0.522;2022-07-29T08:10:49;19.90;62.17
68912;SHT31;55953;51.650;-0.522;2022-07-29T08:13:20;20.02;61.80
68912;SHT31;55953;51.650;-0.522;2022-07-29T08:15:51;20.11;61.24
68912;SHT31;55953;51.650;-0.522;2022-07-29T08:18:26;20.37;61.07
68912;SHT31;55953;51.650;-0.522;2022-07-29T08:20:56;20.80;60.25
68912;SHT31;55953;51.650;-0.522;2022-07-29T08:23:24;21.15;59.48
68912;SHT31;55953;51.650;-0.522;2022-07-29T08:26:13;21.50;59.11
68912;SHT31;55953;51.650;-0.522;2022-07-29T08:28:42;21.79;58.65
68912;SHT31;55953;51.650;-0.522;2022-07-29T08:31:13;21.98;58.37
68912;SHT31;55953;51.650;-0.522;2022-07-29T08:33:41;22.19;58.04
68912;SHT31;55953;51.650;-0.522;2022-07-29T08:36:09;22.35;57.75
68912;SHT31;55953;51.650;-0.522;2022-07-29T08:38:37;22.45;56.53
68912;SHT31;55953;51.650;-0.522;2022-07-29T08:41:05;22.56;54.95
68912;SHT31;55953;51.650;-0.522;2022-07-29T08:43:33;22.54;52.99
68912;SHT31;55953;51.650;-0.522;2022-07-29T08:46:04;22.47;53.70
68912;SHT31;55953;51.650;-0.522;2022-07-29T08:48:32;22.35;53.68
68912;SHT31;55953;51.650;-0.522;2022-07-29T08:51:01;22.33;53.71
68912;SHT31;55953;51.650;-0.522;2022-07-29T08:53:31;22.47;53.87
68912;SHT31;55953;51.650;-0.522;2022-07-29T08:56:00;22.67;53.61
68912;SHT31;55953;51.650;-0.522;2022-07-29T08:58:31;22.78;52.66
68912;SHT31;55953;51.650;-0.522;2022-07-29T09:01:04;22.62;52.14
68912;SHT31;55953;51.650;-0.522;2022-07-29T09:03:39;22.60;52.68
68912;SHT31;55953;51.650;-0.522;2022-07-29T09:06:08;22.66;52.68
68912;SHT31;55953;51.650;-0.522;2022-07-29T09:08:39;22.68;51.74
68912;SHT31;55953;51.650;-0.522;2022-07-29T09:11:08;22.57;50.57
68912;SHT31;55953;51.650;-0.522;2022-07-29T09:13:35;22.48;51.11
68912;SHT31;55953;51.650;-0.522;2022-07-29T09:16:04;22.45;50.11
68912;SHT31;55953;51.650;-0.522;2022-07-29T09:18:37;22.40;50.26
68912;SHT31;55953;51.650;-0.522;2022-07-29T09:21:14;22.37;50.39
68912;SHT31;55953;51.650;-0.522;2022-07-29T09:26:44;22.29;50.49
68912;SHT31;55953;51.650;-0.522;2022-07-29T09:29:14;22.28;49.17
68912;SHT31;55953;51.650;-0.522;2022-07-29T09:31:48;22.21;49.68
68912;SHT31;55953;51.650;-0.522;2022-07-29T09:34:26;22.21;50.03
68912;SHT31;55953;51.650;-0.522;2022-07-29T09:36:55;22.26;50.57
68912;SHT31;55953;51.650;-0.522;2022-07-29T09:42:05;22.25;51.01
68912;SHT31;55953;51.650;-0.522;2022-07-29T09:44:44;22.34;50.65
68912;SHT31;55953;51.650;-0.522;2022-07-29T09:47:18;22.46;50.16
68912;SHT31;55953;51.650;-0.522;2022-07-29T09:49:53;22.56;50.04
68912;SHT31;55953;51.650;-0.522;2022-07-29T09:52:27;22.65;49.07
68912;SHT31;55953;51.650;-0.522;2022-07-29T09:55:06;22.71;48.80
68912;SHT31;55953;51.650;-0.522;2022-07-29T09:57:45;22.80;48.75
68912;SHT31;55953;51.650;-0.522;2022-07-29T10:00:15;22.86;49.73
68912;SHT31;55953;51.650;-0.522;2022-07-29T10:02:46;22.83;49.20
68912;SHT31;55953;51.650;-0.522;2022-07-29T10:05:19;22.87;48.78
68912;SHT31;55953;51.650;-0.522;2022-07-29T10:08:03;22.94;48.65
68912;SHT31;55953;51.650;-0.522;2022-07-29T10:10:33;23.02;49.13
68912;SHT31;55953;51.650;-0.522;2022-07-29T10:13:08;23.09;48.37
68912;SHT31;55953;51.650;-0.522;2022-07-29T10:15:43;23.09;48.01
68912;SHT31;55953;51.650;-0.522;2022-07-29T10:18:14;23.07;46.33
68912;SHT31;55953;51.650;-0.522;2022-07-29T10:20:44;22.99;46.48
68912;SHT31;55953;51.650;-0.522;2022-07-29T10:23:12;22.94;47.04
68912;SHT31;55953;51.650;-0.522;2022-07-29T10:25:41;22.92;46.98
68912;SHT31;55953;51.650;-0.522;2022-07-29T10:28:13;22.95;47.33
68912;SHT31;55953;51.650;-0.522;2022-07-29T10:30:43;22.98;47.44
68912;SHT31;55953;51.650;-0.522;2022-07-29T10:36:40;23.04;46.85
68912;SHT31;55953;51.650;-0.522;2022-07-29T10:43:18;23.04;47.51
68912;SHT31;55953;51.650;-0.522;2022-07-29T10:45:57;23.12;46.15
68912;SHT31;55953;51.650;-0.522;2022-07-29T10:48:27;23.12;46.70
68912;SHT31;55953;51.650;-0.522;2022-07-29T10:50:56;23.19;46.80
68912;SHT31;55953;51.650;-0.522;2022-07-29T10:56:23;23.25;46.95
68912;SHT31;55953;51.650;-0.522;2022-07-29T10:59:38;23.24;47.22
68912;SHT31;55953;51.650;-0.522;2022-07-29T11:01:49;23.26;47.15
68912;SHT31;55953;51.650;-0.522;2022-07-29T11:07:13;23.72;46.53
68912;SHT31;55953;51.650;-0.522;2022-07-29T11:09:43;23.92;46.55
68912;SHT31;55953;51.650;-0.522;2022-07-29T11:12:55;24.13;46.03
68912;SHT31;55953;51.650;-0.522;2022-07-29T11:15:06;24.27;45.70
68912;SHT31;55953;51.650;-0.522;2022-07-29T11:23:34;24.91;44.93
68912;SHT31;55953;51.650;-0.522;2022-07-29T11:31:40;25.00;43.77
68912;SHT31;55953;51.650;-0.522;2022-07-29T11:48:17;25.90;41.93
68912;SHT31;55953;51.650;-0.522;2022-07-29T11:50:58;25.94;41.93
68912;SHT31;55953;51.650;-0.522;2022-07-29T11:53:27;26.10;41.82
68912;SHT31;55953;51.650;-0.522;2022-07-29T11:55:59;26.37;41.51
68912;SHT31;55953;51.650;-0.522;2022-07-29T11:58:29;26.66;41.10
68912;SHT31;55953;51.650;-0.522;2022-07-29T12:00:58;26.93;40.95
68912;SHT31;55953;51.650;-0.522;2022-07-29T12:03:31;27.18;40.67
68912;SHT31;55953;51.650;-0.522;2022-07-29T12:06:20;27.39;40.11
68912;SHT31;55953;51.650;-0.522;2022-07-29T12:08:48;27.42;38.77
68912;SHT31;55953;51.650;-0.522;2022-07-29T12:11:17;27.25;38.44
68912;SHT31;55953;51.650;-0.522;2022-07-29T12:13:49;26.87;38.65
68912;SHT31;55953;51.650;-0.522;2022-07-29T12:16:19;26.53;39.30
68912;SHT31;55953;51.650;-0.522;2022-07-29T12:18:56;26.37;39.90
68912;SHT31;55953;51.650;-0.522;2022-07-29T12:21:26;26.18;39.00
68912;SHT31;55953;51.650;-0.522;2022-07-29T12:23:55;25.85;39.71
68912;SHT31;55953;51.650;-0.522;2022-07-29T12:26:32;25.63;39.83
68912;SHT31;55953;51.650;-0.522;2022-07-29T12:29:02;25.64;40.66
68912;SHT31;55953;51.650;-0.522;2022-07-29T12:31:37;25.83;39.44
68912;SHT31;55953;51.650;-0.522;2022-07-29T12:34:11;25.99;39.34
68912;SHT31;55953;51.650;-0.522;2022-07-29T12:36:42;26.09;39.41
68912;SHT31;55953;51.650;-0.522;2022-07-29T12:39:10;26.22;40.09
68912;SHT31;55953;51.650;-0.522;2022-07-29T12:41:39;26.62;39.71
68912;SHT31;55953;51.650;-0.522;2022-07-29T12:44:07;27.09;39.37
68912;SHT31;55953;51.650;-0.522;2022-07-29T12:46:35;27.50;38.67
68912;SHT31;55953;51.650;-0.522;2022-07-29T12:49:03;27.82;37.99
68912;SHT31;55953;51.650;-0.522;2022-07-29T12:51:32;28.19;37.64
68912;SHT31;55953;51.650;-0.522;2022-07-29T12:56:38;28.75;36.42
68912;SHT31;55953;51.650;-0.522;2022-07-29T12:59:20;28.80;36.60
68912;SHT31;55953;51.650;-0.522;2022-07-29T13:01:50;28.95;36.22
68912;SHT31;55953;51.650;-0.522;2022-07-29T13:04:26;28.76;35.69
68912;SHT31;55953;51.650;-0.522;2022-07-29T13:07:03;28.28;35.57
68912;SHT31;55953;51.650;-0.522;2022-07-29T13:09:39;27.67;35.70
68912;SHT31;55953;51.650;-0.522;2022-07-29T13:12:11;27.31;36.44
68912;SHT31;55953;51.650;-0.522;2022-07-29T13:14:47;27.25;36.88
68912;SHT31;55953;51.650;-0.522;2022-07-29T13:17:17;27.10;37.52
68912;SHT31;55953;51.650;-0.522;2022-07-29T13:22:35;27.04;37.63
68912;SHT31;55953;51.650;-0.522;2022-07-29T13:25:04;27.02;37.95
68912;SHT31;55953;51.650;-0.522;2022-07-29T13:27:36;26.89;37.94
68912;SHT31;55953;51.650;-0.522;2022-07-29T13:30:06;26.76;38.33
68912;SHT31;55953;51.650;-0.522;2022-07-29T13:32:36;26.76;38.75
68912;SHT31;55953;51.650;-0.522;2022-07-29T13:35:05;26.86;38.32
68912;SHT31;55953;51.650;-0.522;2022-07-29T13:37:35;26.98;38.38
68912;SHT31;55953;51.650;-0.522;2022-07-29T13:40:06;27.00;38.63
68912;SHT31;55953;51.650;-0.522;2022-07-29T13:42:36;26.97;39.22
68912;SHT31;55953;51.650;-0.522;2022-07-29T13:45:05;26.94;39.11
68912;SHT31;55953;51.650;-0.522;2022-07-29T13:47:34;26.83;37.81
68912;SHT31;55953;51.650;-0.522;2022-07-29T13:50:06;27.00;38.28
68912;SHT31;55953;51.650;-0.522;2022-07-29T13:52:37;27.43;37.93
68912;SHT31;55953;51.650;-0.522;2022-07-29T13:55:05;27.75;36.39
68912;SHT31;55953;51.650;-0.522;2022-07-29T13:57:34;27.99;36.47
68912;SHT31;55953;51.650;-0.522;2022-07-29T14:00:02;28.15;36.32
68912;SHT31;55953;51.650;-0.522;2022-07-29T14:02:34;28.00;36.01
68912;SHT31;55953;51.650;-0.522;2022-07-29T14:05:02;27.78;36.84
68912;SHT31;55953;51.650;-0.522;2022-07-29T14:07:35;27.70;37.36
68912;SHT31;55953;51.650;-0.522;2022-07-29T14:10:05;27.60;36.78
68912;SHT31;55953;51.650;-0.522;2022-07-29T14:12:34;27.72;36.68
68912;SHT31;55953;51.650;-0.522;2022-07-29T14:15:02;27.86;36.01
68912;SHT31;55953;51.650;-0.522;2022-07-29T14:17:30;27.91;36.19
68912;SHT31;55953;51.650;-0.522;2022-07-29T14:19:58;27.91;36.49
68912;SHT31;55953;51.650;-0.522;2022-07-29T14:22:26;27.89;36.78
68912;SHT31;55953;51.650;-0.522;2022-07-29T14:24:53;27.99;36.11
68912;SHT31;55953;51.650;-0.522;2022-07-29T14:27:21;28.00;35.34
68912;SHT31;55953;51.650;-0.522;2022-07-29T14:30:05;28.00;35.11
68912;SHT31;55953;51.650;-0.522;2022-07-29T14:32:33;28.17;35.73
68912;SHT31;55953;51.650;-0.522;2022-07-29T14:35:01;28.44;35.14
68912;SHT31;55953;51.650;-0.522;2022-07-29T14:37:30;28.66;35.31
68912;SHT31;55953;51.650;-0.522;2022-07-29T14:40:07;28.89;35.15
68912;SHT31;55953;51.650;-0.522;2022-07-29T14:42:36;29.06;34.68
68912;SHT31;55953;51.650;-0.522;2022-07-29T14:45:06;29.07;35.09
68912;SHT31;55953;51.650;-0.522;2022-07-29T14:47:36;29.09;34.67
68912;SHT31;55953;51.650;-0.522;2022-07-29T14:50:05;28.98;35.05
68912;SHT31;55953;51.650;-0.522;2022-07-29T14:52:34;28.70;34.27
68912;SHT31;55953;51.650;-0.522;2022-07-29T14:55:03;28.57;34.69
68912;SHT31;55953;51.650;-0.522;2022-07-29T14:57:42;28.62;34.94
68912;SHT31;55953;51.650;-0.522;2022-07-29T15:00:10;28.85;34.77
68912;SHT31;55953;51.650;-0.522;2022-07-29T15:02:39;28.91;34.65
68912;SHT31;55953;51.650;-0.522;2022-07-29T15:05:27;28.82;34.43
68912;SHT31;55953;51.650;-0.522;2022-07-29T15:07:57;28.60;34.15
68912;SHT31;55953;51.650;-0.522;2022-07-29T15:10:26;28.39;34.22
68912;SHT31;55953;51.650;-0.522;2022-07-29T15:12:56;28.22;35.09
68912;SHT31;55953;51.650;-0.522;2022-07-29T15:15:24;28.09;35.00
68912;SHT31;55953;51.650;-0.522;2022-07-29T15:17:52;27.89;35.30
68912;SHT31;55953;51.650;-0.522;2022-07-29T15:20:20;27.65;35.21
68912;SHT31;55953;51.650;-0.522;2022-07-29T15:22:48;27.40;34.94
68912;SHT31;55953;51.650;-0.522;2022-07-29T15:25:16;27.21;35.39
68912;SHT31;55953;51.650;-0.522;2022-07-29T15:27:44;27.08;36.27
68912;SHT31;55953;51.650;-0.522;2022-07-29T15:30:19;27.02;36.42
68912;SHT31;55953;51.650;-0.522;2022-07-29T15:33:00;26.88;37.56
68912;SHT31;55953;51.650;-0.522;2022-07-29T15:35:30;26.77;37.59
68912;SHT31;55953;51.650;-0.522;2022-07-29T15:37:58;26.75;37.43
68912;SHT31;55953;51.650;-0.522;2022-07-29T15:40:26;26.69;37.33
68912;SHT31;55953;51.650;-0.522;2022-07-29T15:42:55;26.67;37.30
68912;SHT31;55953;51.650;-0.522;2022-07-29T15:45:23;26.66;37.41
68912;SHT31;55953;51.650;-0.522;2022-07-29T15:47:51;26.61;37.43
68912;SHT31;55953;51.650;-0.522;2022-07-29T15:50:19;26.63;37.28
68912;SHT31;55953;51.650;-0.522;2022-07-29T15:52:47;26.68;37.46
68912;SHT31;55953;51.650;-0.522;2022-07-29T15:55:15;26.77;37.60
68912;SHT31;55953;51.650;-0.522;2022-07-29T15:57:43;26.88;37.58
68912;SHT31;55953;51.650;-0.522;2022-07-29T16:00:10;26.94;37.12
68912;SHT31;55953;51.650;-0.522;2022-07-29T16:02:40;26.99;37.28
68912;SHT31;55953;51.650;-0.522;2022-07-29T16:05:07;27.21;37.85
68912;SHT31;55953;51.650;-0.522;2022-07-29T16:07:36;27.37;37.42
68912;SHT31;55953;51.650;-0.522;2022-07-29T16:10:04;27.66;36.91
68912;SHT31;55953;51.650;-0.522;2022-07-29T16:12:34;27.81;36.71
68912;SHT31;55953;51.650;-0.522;2022-07-29T16:15:02;27.79;36.82
68912;SHT31;55953;51.650;-0.522;2022-07-29T16:17:36;27.73;36.87
68912;SHT31;55953;51.650;-0.522;2022-07-29T16:20:05;27.70;36.57
68912;SHT31;55953;51.650;-0.522;2022-07-29T16:22:34;27.65;36.95
68912;SHT31;55953;51.650;-0.522;2022-07-29T16:25:02;27.65;36.73
68912;SHT31;55953;51.650;-0.522;2022-07-29T16:27:30;27.73;36.73
68912;SHT31;55953;51.650;-0.522;2022-07-29T16:30:05;27.77;36.26
68912;SHT31;55953;51.650;-0.522;2022-07-29T16:32:36;27.78;36.35
68912;SHT31;55953;51.650;-0.522;2022-07-29T16:35:05;27.74;36.32
68912;SHT31;55953;51.650;-0.522;2022-07-29T16:37:34;27.77;36.24
68912;SHT31;55953;51.650;-0.522;2022-07-29T16:40:03;27.69;35.98
68912;SHT31;55953;51.650;-0.522;2022-07-29T16:42:33;27.72;36.56
68912;SHT31;55953;51.650;-0.522;2022-07-29T16:45:17;27.61;35.83
68912;SHT31;55953;51.650;-0.522;2022-07-29T16:47:47;27.50;36.53